Time;durP1;ratioP1;P1;durP2;ratioP2;P2;SDS_P1;SDS_P2;PMS_P1;PMS_P2;Temp;Humidity;BMP_temperature;BMP_pressure;BME280_temperature;BME280_humidity;BME280_pressure;Samples;Min_cycle;Max_cycle;Signal;HPM_P1;HPM_P2
2023/07/13 00:02:24;;;;;;;1.33;0.85;;;22.60;54.80;;;;;;5040458;28;20476;-78
2023/07/13 00:04:50;;;;;;;2.75;1.20;;;22.60;54.80;;;;;;5057177;28;20028;-78
2023/07/13 00:07:19;;;;;;;1.60;1.38;;;22.60;54.80;;;;;;5040335;28;20025;-78
2023/07/13 00:09:46;;;;;;;1.88;0.98;;;22.50;54.80;;;;;;5057181;28;20049;-78
2023/07/13 00:12:33;;;;;;;1.63;1.00;;;22.50;54.80;;;;;;5056538;28;20055;-78
2023/07/13 00:15:01;;;;;;;2.67;1.00;;;22.50;54.90;;;;;;5074988;28;20084;-78
2023/07/13 00:17:27;;;;;;;1.50;0.85;;;22.40;54.90;;;;;;5056859;28;20475;-78
2023/07/13 00:19:55;;;;;;;1.70;1.10;;;22.40;55.00;;;;;;5056626;28;20028;-79
2023/07/13 00:22:23;;;;;;;1.55;1.05;;;22.40;55.00;;;;;;5074819;28;20039;-78
2023/07/13 00:24:51;;;;;;;1.02;0.88;;;22.40;55.00;;;;;;5041068;28;20097;-80
2023/07/13 00:27:18;;;;;;;2.45;1.13;;;22.30;55.10;;;;;;5039331;28;20040;-80
2023/07/13 00:29:44;;;;;;;2.33;1.10;;;22.30;55.00;;;;;;5056774;28;20044;-78
2023/07/13 00:32:11;;;;;;;1.48;1.00;;;22.30;55.10;;;;;;5073638;28;20450;-80
2023/07/13 00:34:38;;;;;;;2.00;1.00;;;22.20;55.10;;;;;;5040264;28;20032;-78
2023/07/13 00:37:06;;;;;;;1.75;1.00;;;22.20;55.10;;;;;;5040120;28;20056;-79
2023/07/13 00:39:33;;;;;;;1.08;0.98;;;22.20;55.20;;;;;;5056710;28;20078;-78
2023/07/13 00:42:00;;;;;;;1.35;0.95;;;22.10;55.20;;;;;;5056798;28;20036;-78
2023/07/13 00:44:26;;;;;;;2.30;0.85;;;22.10;55.30;;;;;;5007466;28;20033;-78
2023/07/13 00:46:52;;;;;;;1.63;1.00;;;22.10;55.20;;;;;;5039626;28;20105;-78
2023/07/13 00:49:21;;;;;;;1.58;1.10;;;22.00;55.20;;;;;;5039695;28;20566;-77
2023/07/13 00:51:52;;;;;;;2.35;1.17;;;22.00;55.30;;;;;;5056183;28;20040;-78
2023/07/13 00:54:26;;;;;;;1.50;0.90;;;22.00;55.30;;;;;;5056267;28;20036;-78
2023/07/13 00:56:55;;;;;;;1.17;0.97;;;21.90;55.30;;;;;;5056332;28;20032;-81
2023/07/13 00:59:22;;;;;;;1.20;0.90;;;22.00;55.40;;;;;;5073945;28;20275;-78
2023/07/13 01:01:49;;;;;;;1.67;0.98;;;21.90;55.40;;;;;;5072770;28;20036;-76
2023/07/13 01:04:14;;;;;;;1.45;0.95;;;21.90;55.50;;;;;;5056097;28;20491;-80
2023/07/13 01:06:43;;;;;;;1.10;0.90;;;21.90;55.50;;;;;;5056027;28;20033;-80
2023/07/13 01:09:10;;;;;;;1.73;1.08;;;21.90;55.60;;;;;;5055755;28;20063;-79
2023/07/13 01:11:36;;;;;;;1.13;0.90;;;21.80;55.60;;;;;;5073707;28;20033;-80
2023/07/13 01:14:03;;;;;;;2.30;0.98;;;21.80;55.60;;;;;;5055431;28;20035;-80
2023/07/13 01:16:31;;;;;;;0.93;0.88;;;21.80;55.60;;;;;;5073639;28;20036;-80
2023/07/13 01:18:58;;;;;;;1.15;0.82;;;21.80;55.70;;;;;;5055686;28;20062;-80
2023/07/13 01:21:25;;;;;;;1.63;0.77;;;21.70;55.70;;;;;;5055913;28;20109;-80
2023/07/13 01:23:51;;;;;;;1.58;0.90;;;21.70;56.40;;;;;;5073289;28;20032;-80
2023/07/13 01:26:17;;;;;;;1.50;0.88;;;21.70;55.80;;;;;;5039075;28;20492;-80
2023/07/13 01:28:43;;;;;;;0.98;0.80;;;21.60;55.80;;;;;;5038812;28;20068;-80
2023/07/13 01:31:10;;;;;;;2.53;1.13;;;21.60;55.80;;;;;;5055667;28;20145;-80
2023/07/13 01:33:39;;;;;;;1.60;0.90;;;21.60;55.80;;;;;;5038986;28;20029;-80
2023/07/13 01:36:06;;;;;;;1.30;1.00;;;21.60;55.90;;;;;;5038920;28;20470;-80
2023/07/13 01:38:34;;;;;;;0.80;0.80;;;21.50;55.80;;;;;;5054846;28;20106;-80
2023/07/13 01:41:00;;;;;;;1.35;0.93;;;21.50;55.90;;;;;;5038554;28;20031;-80
2023/07/13 01:43:26;;;;;;;1.85;0.98;;;21.50;55.90;;;;;;5055309;28;20033;-79
2023/07/13 01:45:52;;;;;;;2.28;0.95;;;21.50;55.90;;;;;;5055890;28;20028;-80
2023/07/13 01:48:18;;;;;;;2.53;0.93;;;21.50;56.00;;;;;;5072552;28;20082;-80
2023/07/13 01:50:46;;;;;;;1.20;0.70;;;21.40;56.00;;;;;;5038912;28;20107;-80
2023/07/13 01:53:12;;;;;;;1.92;0.90;;;21.40;56.00;;;;;;5038606;28;20055;-79
2023/07/13 01:55:39;;;;;;;0.85;0.73;;;21.40;56.00;;;;;;5038969;28;20028;-80
2023/07/13 01:58:04;;;;;;;1.10;0.88;;;21.40;56.00;;;;;;5071753;28;20046;-81
2023/07/13 02:00:31;;;;;;;1.05;0.95;;;21.40;56.10;;;;;;5038538;28;20098;-80
2023/07/13 02:02:56;;;;;;;2.28;1.25;;;21.40;56.20;;;;;;5038490;28;20028;-80
2023/07/13 02:05:22;;;;;;;1.52;0.93;;;21.30;56.10;;;;;;5039231;28;20475;-80
2023/07/13 02:07:49;;;;;;;2.60;1.10;;;21.30;56.10;;;;;;5022136;28;20032;-80
2023/07/13 02:10:15;;;;;;;1.65;1.05;;;21.30;56.20;;;;;;5054892;28;20036;-79
2023/07/13 02:12:41;;;;;;;1.40;0.80;;;21.30;56.20;;;;;;5055261;28;20470;-80
2023/07/13 02:15:08;;;;;;;1.88;1.02;;;21.20;56.20;;;;;;5055218;28;20043;-80
2023/07/13 02:17:35;;;;;;;1.00;0.90;;;21.20;56.20;;;;;;5038548;28;20032;-80
2023/07/13 02:20:02;;;;;;;2.83;0.90;;;21.20;56.20;;;;;;5038429;28;20059;-80
2023/07/13 02:22:28;;;;;;;1.40;1.13;;;21.20;56.30;;;;;;5038340;28;20447;-80
2023/07/13 02:24:57;;;;;;;1.40;1.00;;;21.10;56.30;;;;;;5055048;28;20039;-80
2023/07/13 02:27:22;;;;;;;0.98;0.90;;;21.10;56.20;;;;;;5071912;28;20025;-80
2023/07/13 02:29:51;;;;;;;1.27;0.90;;;21.10;56.30;;;;;;5055352;28;20082;-79
2023/07/13 02:32:17;;;;;;;1.13;1.00;;;21.10;56.30;;;;;;5055847;28;20036;-79
2023/07/13 02:34:43;;;;;;;1.40;0.95;;;21.10;56.30;;;;;;5005965;28;20029;-79
2023/07/13 02:37:09;;;;;;;1.23;1.00;;;21.00;56.30;;;;;;5055074;28;20032;-79
2023/07/13 02:39:35;;;;;;;1.52;1.02;;;21.00;56.30;;;;;;5038557;28;20063;-79
2023/07/13 02:42:03;;;;;;;1.58;1.02;;;21.00;56.40;;;;;;5038735;28;20033;-80
2023/07/13 02:44:29;;;;;;;1.33;1.15;;;21.00;56.40;;;;;;5072634;28;20059;-80
2023/07/13 02:46:55;;;;;;;1.00;0.90;;;21.00;56.50;;;;;;5055761;28;20041;-80
2023/07/13 02:49:21;;;;;;;2.72;1.20;;;20.90;56.40;;;;;;5054446;28;20147;-81
2023/07/13 02:51:47;;;;;;;1.85;1.10;;;20.90;56.50;;;;;;5024140;28;20043;-79
2023/07/13 02:54:13;;;;;;;1.80;1.10;;;20.90;56.50;;;;;;5042674;28;20059;-80
2023/07/13 02:56:40;;;;;;;1.08;0.93;;;20.90;56.60;;;;;;5041529;28;20037;-79
2023/07/13 02:59:06;;;;;;;2.75;1.30;;;20.90;56.60;;;;;;5041507;28;20036;-79
2023/07/13 03:01:35;;;;;;;2.45;1.17;;;20.90;56.70;;;;;;5058286;28;20043;-80
2023/07/13 03:04:01;;;;;;;1.90;1.20;;;20.80;56.60;;;;;;5010302;28;20362;-80
2023/07/13 03:06:30;;;;;;;2.72;1.20;;;20.80;56.70;;;;;;5042075;28;20025;-80
2023/07/13 03:08:56;;;;;;;1.63;1.00;;;20.80;56.70;;;;;;5076301;28;20036;-80
2023/07/13 03:11:23;;;;;;;1.05;1.00;;;20.80;56.70;;;;;;5041796;28;20048;-80
2023/07/13 03:13:58;;;;;;;1.40;1.00;;;20.70;56.60;;;;;;5058232;28;20028;-80
2023/07/13 03:16:25;;;;;;;2.50;1.30;;;20.80;56.70;;;;;;5057812;28;20032;-80
2023/07/13 03:18:52;;;;;;;2.50;1.20;;;20.70;56.70;;;;;;5041595;28;20392;-80
2023/07/13 03:21:18;;;;;;;1.63;1.17;;;20.70;56.70;;;;;;5041174;28;20029;-79
2023/07/13 03:23:44;;;;;;;1.45;1.23;;;20.70;56.70;;;;;;5058412;28;20063;-80
2023/07/13 03:26:13;;;;;;;1.33;1.05;;;20.60;56.70;;;;;;5041784;28;20534;-80
2023/07/13 03:28:41;;;;;;;2.50;1.02;;;20.70;56.80;;;;;;5057850;28;20518;-81
2023/07/13 03:31:24;;;;;;;1.95;1.10;;;20.60;56.80;;;;;;5041537;28;20174;-80
2023/07/13 03:33:51;;;;;;;2.33;1.30;;;20.60;56.90;;;;;;5051546;28;20032;-80
2023/07/13 03:36:20;;;;;;;2.05;1.10;;;20.60;56.90;;;;;;5057748;28;20036;-80
2023/07/13 03:38:48;;;;;;;1.35;1.08;;;20.60;56.90;;;;;;5057650;28;20035;-80
2023/07/13 03:41:17;;;;;;;1.58;1.15;;;20.60;57.00;;;;;;5041835;28;20162;-81
2023/07/13 03:43:44;;;;;;;1.88;1.17;;;20.60;57.00;;;;;;5040841;28;20033;-84
2023/07/13 03:46:11;;;;;;;2.58;1.40;;;20.50;57.00;;;;;;5057251;28;20032;-80
2023/07/13 03:48:39;;;;;;;1.75;0.95;;;20.50;57.00;;;;;;5040606;28;20068;-79
2023/07/13 03:51:05;;;;;;;2.05;1.40;;;20.50;57.10;;;;;;5041159;28;20121;-80
2023/07/13 03:53:31;;;;;;;2.85;1.10;;;20.50;57.10;;;;;;5057349;28;20060;-79
2023/07/13 03:55:57;;;;;;;1.40;1.13;;;20.40;57.10;;;;;;5024521;28;20033;-79
2023/07/13 03:58:30;;;;;;;1.90;1.20;;;20.40;57.10;;;;;;5057541;28;20461;-78
2023/07/13 04:01:02;;;;;;;2.25;1.15;;;20.40;57.10;;;;;;5057450;28;20028;-79
2023/07/13 04:03:29;;;;;;;2.35;1.23;;;20.40;57.20;;;;;;5057168;28;20444;-80
2023/07/13 04:05:59;;;;;;;1.63;1.20;;;20.40;57.20;;;;;;5040718;28;20051;-79
2023/07/13 04:08:35;;;;;;;1.88;1.15;;;20.40;57.20;;;;;;5057205;28;20468;-80
2023/07/13 04:11:01;;;;;;;2.13;1.35;;;20.40;57.40;;;;;;5056976;28;20037;-79
2023/07/13 04:13:27;;;;;;;1.77;1.27;;;20.30;57.20;;;;;;5057094;28;20550;-79
2023/07/13 04:15:53;;;;;;;1.75;1.35;;;20.30;57.20;;;;;;5040928;28;20074;-80
2023/07/13 04:18:20;;;;;;;1.17;0.93;;;20.30;57.30;;;;;;5040161;28;20032;-82
2023/07/13 04:20:50;;;;;;;2.50;1.33;;;20.30;57.40;;;;;;5023720;28;20432;-79
2023/07/13 04:23:17;;;;;;;2.75;1.20;;;20.30;57.40;;;;;;5074756;28;20084;-79
2023/07/13 04:25:49;;;;;;;1.88;1.50;;;20.20;57.40;;;;;;5074719;28;20028;-81
2023/07/13 04:28:15;;;;;;;2.28;1.30;;;20.20;57.50;;;;;;5056564;28;20040;-79
2023/07/13 04:30:41;;;;;;;2.20;1.40;;;20.20;57.50;;;;;;5056496;28;20032;-82
2023/07/13 04:33:08;;;;;;;2.28;1.42;;;20.20;57.50;;;;;;5040572;28;20097;-79
2023/07/13 04:35:35;;;;;;;2.55;1.38;;;20.20;57.50;;;;;;5074131;28;20465;-80
2023/07/13 04:38:01;;;;;;;1.75;1.40;;;20.20;57.60;;;;;;5056324;28;20055;-80
2023/07/13 04:40:28;;;;;;;1.48;1.02;;;20.20;57.60;;;;;;5039785;28;20024;-81
2023/07/13 04:42:53;;;;;;;2.65;1.40;;;20.10;57.60;;;;;;5039438;28;20033;-78
2023/07/13 04:45:19;;;;;;;2.03;1.10;;;20.10;57.60;;;;;;5039559;28;20078;-81
2023/07/13 04:47:45;;;;;;;2.45;1.30;;;20.10;57.70;;;;;;5039817;28;20036;-80
2023/07/13 04:50:15;;;;;;;1.85;1.23;;;20.10;57.60;;;;;;5039754;28;20044;-80
2023/07/13 04:52:42;;;;;;;2.35;1.40;;;20.10;57.70;;;;;;5056315;28;20088;-79
2023/07/13 04:55:08;;;;;;;2.10;1.00;;;20.10;57.70;;;;;;5073047;28;20036;-79
2023/07/13 04:57:34;;;;;;;3.90;1.60;;;20.10;57.80;;;;;;5056671;28;20036;-79
2023/07/13 05:00:01;;;;;;;2.22;1.33;;;20.10;57.80;;;;;;5040150;28;20036;-79
2023/07/13 05:02:28;;;;;;;2.75;1.30;;;20.10;57.90;;;;;;5039884;28;20028;-79
2023/07/13 05:04:53;;;;;;;2.70;1.48;;;20.00;57.90;;;;;;5040076;28;20041;-79
2023/07/13 05:07:21;;;;;;;2.05;1.40;;;20.00;57.90;;;;;;5056213;28;20031;-79
2023/07/13 05:09:47;;;;;;;1.92;1.25;;;20.10;58.00;;;;;;5055995;28;20085;-79
2023/07/13 05:12:13;;;;;;;1.52;1.23;;;20.00;57.90;;;;;;5056386;28;20029;-79
2023/07/13 05:14:38;;;;;;;2.50;1.38;;;20.00;57.90;;;;;;5005975;28;20070;-79
2023/07/13 05:17:04;;;;;;;1.52;1.33;;;20.00;58.00;;;;;;5056713;28;20029;-79
2023/07/13 05:19:30;;;;;;;1.73;1.15;;;20.00;58.00;;;;;;5039488;28;20044;-79
2023/07/13 05:21:56;;;;;;;2.40;1.52;;;20.10;58.10;;;;;;5039482;28;20021;-79
2023/07/13 05:24:21;;;;;;;2.75;1.60;;;20.00;58.00;;;;;;5072439;28;20457;-78
2023/07/13 05:26:47;;;;;;;3.03;1.60;;;20.00;58.10;;;;;;5039186;28;20036;-78
2023/07/13 05:29:13;;;;;;;1.92;1.25;;;20.00;58.10;;;;;;5055901;28;20041;-79
2023/07/13 05:31:39;;;;;;;3.30;1.85;;;20.00;58.10;;;;;;5039088;28;20543;-79
2023/07/13 05:34:05;;;;;;;3.15;1.70;;;20.00;58.10;;;;;;5039859;28;20453;-79
2023/07/13 05:36:31;;;;;;;3.10;1.80;;;20.00;58.20;;;;;;5056009;28;20033;-79
2023/07/13 05:38:56;;;;;;;2.65;1.52;;;20.00;58.20;;;;;;5039640;28;20028;-79
2023/07/13 05:41:22;;;;;;;3.38;1.50;;;20.00;58.20;;;;;;5055443;28;20063;-79
2023/07/13 05:43:48;;;;;;;3.95;1.40;;;20.10;58.30;;;;;;5056475;28;20106;-79
2023/07/13 05:46:14;;;;;;;4.80;1.83;;;20.10;58.30;;;;;;5056192;28;20044;-79
2023/07/13 05:48:39;;;;;;;2.17;1.52;;;20.00;58.30;;;;;;5072831;28;20064;-79
2023/07/13 05:51:05;;;;;;;2.85;1.83;;;20.10;58.30;;;;;;5055725;28;20036;-79
2023/07/13 05:53:31;;;;;;;2.28;1.67;;;20.10;58.30;;;;;;5022403;28;20032;-79
2023/07/13 05:55:57;;;;;;;3.70;1.80;;;20.10;58.40;;;;;;5072099;28;20033;-79
2023/07/13 05:58:22;;;;;;;3.03;1.63;;;20.10;58.40;;;;;;5055240;28;20036;-78
2023/07/13 06:00:58;;;;;;;3.20;1.80;;;20.10;58.40;;;;;;5055363;28;20032;-78
2023/07/13 06:03:23;;;;;;;2.30;1.30;;;20.10;58.40;;;;;;5055208;28;20035;-79
2023/07/13 06:05:49;;;;;;;2.72;1.60;;;20.10;58.40;;;;;;5055993;28;20123;-78
2023/07/13 06:08:15;;;;;;;2.50;1.65;;;20.10;58.50;;;;;;5038618;28;20064;-78
2023/07/13 06:10:41;;;;;;;3.53;1.98;;;20.10;58.50;;;;;;5055968;28;20035;-79
2023/07/13 06:13:06;;;;;;;3.42;1.60;;;20.10;58.50;;;;;;5055652;28;20037;-78
2023/07/13 06:15:33;;;;;;;4.38;2.05;;;20.20;58.60;;;;;;5055571;28;20025;-78
2023/07/13 06:17:58;;;;;;;2.28;1.63;;;20.20;58.60;;;;;;5072965;28;20036;-79
2023/07/13 06:20:24;;;;;;;5.07;1.85;;;20.20;58.60;;;;;;5038385;28;20040;-79
2023/07/13 06:22:50;;;;;;;2.90;1.90;;;20.20;59.30;;;;;;5073761;28;20028;-80
2023/07/13 06:25:17;;;;;;;2.80;1.90;;;20.30;58.70;;;;;;5040023;28;20033;-79
2023/07/13 06:27:43;;;;;;;3.60;2.08;;;20.30;58.70;;;;;;5043011;28;20040;-79
2023/07/13 06:30:10;;;;;;;2.33;1.63;;;20.30;58.70;;;;;;5042670;28;20085;-78
2023/07/13 06:32:36;;;;;;;3.92;2.03;;;20.30;58.70;;;;;;5042365;28;20382;-79
2023/07/13 06:35:01;;;;;;;3.30;2.03;;;20.30;58.70;;;;;;5026047;28;20119;-78
2023/07/13 06:37:27;;;;;;;4.53;1.98;;;20.30;58.70;;;;;;5009597;28;20039;-78
2023/07/13 06:39:53;;;;;;;3.20;1.98;;;20.40;58.70;;;;;;5059359;28;20033;-78
2023/07/13 06:42:19;;;;;;;3.75;1.90;;;20.40;58.80;;;;;;5059134;28;20487;-78
2023/07/13 06:44:44;;;;;;;3.28;2.03;;;20.40;58.70;;;;;;5076418;28;20033;-78
2023/07/13 06:47:10;;;;;;;3.72;2.00;;;20.40;58.80;;;;;;5058707;28;20534;-79
2023/07/13 06:49:36;;;;;;;5.28;2.20;;;20.40;58.70;;;;;;5041871;28;20560;-78
2023/07/13 06:52:02;;;;;;;3.50;2.05;;;20.50;58.80;;;;;;5042078;28;20119;-78
2023/07/13 06:54:28;;;;;;;5.30;2.13;;;20.50;58.70;;;;;;5058618;28;20464;-78
2023/07/13 06:56:53;;;;;;;4.68;2.50;;;20.50;58.70;;;;;;5042011;28;20119;-79
2023/07/13 06:59:19;;;;;;;3.97;2.13;;;20.50;58.70;;;;;;5076093;28;20040;-79
2023/07/13 07:01:45;;;;;;;4.88;2.45;;;20.60;58.70;;;;;;5076579;28;20040;-79
2023/07/13 07:04:11;;;;;;;4.68;2.28;;;20.60;58.70;;;;;;5009123;28;20036;-79
2023/07/13 07:06:36;;;;;;;3.40;2.00;;;20.60;58.70;;;;;;5058435;28;20393;-78
2023/07/13 07:09:02;;;;;;;4.30;2.38;;;20.60;58.70;;;;;;5074911;28;20051;-78
2023/07/13 07:11:28;;;;;;;3.20;2.03;;;20.70;58.70;;;;;;5058332;28;20029;-79
2023/07/13 07:13:54;;;;;;;4.07;2.20;;;20.70;58.70;;;;;;5075962;28;20033;-78
2023/07/13 07:16:20;;;;;;;2.25;1.95;;;20.70;58.70;;;;;;5076389;28;20059;-78
2023/07/13 07:18:47;;;;;;;2.88;2.30;;;20.70;58.70;;;;;;5076344;28;20036;-78
2023/07/13 07:21:13;;;;;;;4.38;2.55;;;20.80;58.80;;;;;;5058205;28;20020;-79
2023/07/13 07:23:39;;;;;;;3.85;2.50;;;20.80;58.80;;;;;;5041676;28;20041;-79
2023/07/13 07:26:05;;;;;;;4.22;2.30;;;20.80;58.80;;;;;;5074700;28;20385;-79
2023/07/13 07:28:31;;;;;;;4.13;2.42;;;20.90;58.80;;;;;;5057656;28;20112;-79
2023/07/13 07:30:58;;;;;;;4.10;2.60;;;20.90;58.80;;;;;;5074695;28;20507;-79
2023/07/13 07:33:24;;;;;;;3.88;2.40;;;20.90;58.80;;;;;;5057682;28;20062;-79
2023/07/13 07:35:51;;;;;;;3.70;2.53;;;21.00;58.80;;;;;;5057660;28;20032;-79
2023/07/13 07:38:16;;;;;;;4.47;2.53;;;21.00;58.80;;;;;;5057561;28;20029;-78
2023/07/13 07:40:42;;;;;;;4.07;2.33;;;21.10;58.80;;;;;;5040969;28;20036;-79
2023/07/13 07:43:09;;;;;;;3.80;2.65;;;21.10;58.70;;;;;;5057696;28;20037;-79
2023/07/13 07:45:37;;;;;;;3.58;2.30;;;21.10;58.70;;;;;;5057413;28;20104;-79
2023/07/13 07:48:04;;;;;;;4.07;2.65;;;21.20;58.70;;;;;;5040889;28;20037;-78
2023/07/13 07:50:30;;;;;;;3.05;2.22;;;21.20;58.70;;;;;;5076113;28;20087;-78
2023/07/13 07:52:56;;;;;;;3.30;2.60;;;21.30;58.70;;;;;;5057726;28;20490;-79
2023/07/13 07:55:23;;;;;;;3.92;2.63;;;21.30;58.60;;;;;;5057467;28;20041;-80
2023/07/13 07:57:49;;;;;;;4.10;2.42;;;21.40;58.70;;;;;;5057219;28;20047;-80
2023/07/13 08:00:16;;;;;;;3.08;2.05;;;21.40;58.70;;;;;;5041112;28;20032;-77
2023/07/13 08:02:43;;;;;;;4.82;2.67;;;21.40;58.70;;;;;;5041603;28;20450;-77
2023/07/13 08:05:09;;;;;;;4.15;2.63;;;21.50;58.60;;;;;;5041393;28;20561;-79
2023/07/13 08:07:39;;;;;;;4.40;2.10;;;21.50;58.60;;;;;;5057360;28;20031;-79
2023/07/13 08:10:08;;;;;;;3.63;2.10;;;21.50;58.60;;;;;;5057245;28;20044;-79
2023/07/13 08:12:36;;;;;;;5.28;2.38;;;21.60;58.60;;;;;;5075428;28;20058;-79
2023/07/13 08:15:02;;;;;;;3.63;2.20;;;21.60;58.50;;;;;;5040703;28;20036;-79
2023/07/13 08:17:28;;;;;;;3.45;2.33;;;21.70;58.60;;;;;;5057156;28;20086;-79
2023/07/13 08:19:54;;;;;;;4.40;2.60;;;21.70;58.40;;;;;;5040380;28;20036;-79
2023/07/13 08:22:20;;;;;;;4.35;2.75;;;21.70;58.40;;;;;;5040333;28;20032;-78
2023/07/13 08:24:47;;;;;;;4.38;2.50;;;21.80;59.10;;;;;;5056710;28;20037;-79
2023/07/13 08:27:13;;;;;;;4.63;2.72;;;21.80;58.40;;;;;;5057629;28;20036;-79
2023/07/13 08:29:39;;;;;;;3.20;2.47;;;21.90;58.40;;;;;;5075151;28;20037;-79
2023/07/13 08:32:09;;;;;;;3.45;2.38;;;21.90;58.40;;;;;;5039796;28;20074;-79
2023/07/13 08:34:35;;;;;;;5.20;2.65;;;22.00;58.40;;;;;;5056382;28;20029;-79
2023/07/13 08:37:02;;;;;;;3.78;2.38;;;22.00;58.30;;;;;;5039993;28;20025;-79
2023/07/13 08:39:30;;;;;;;4.82;2.67;;;22.10;58.30;;;;;;5056832;28;20479;-79
2023/07/13 08:42:10;;;;;;;4.13;2.45;;;22.10;58.20;;;;;;5040161;28;20476;-79
2023/07/13 08:44:43;;;;;;;3.90;2.53;;;22.20;58.20;;;;;;5056724;28;20469;-79
2023/07/13 08:47:11;;;;;;;4.03;2.40;;;22.20;58.10;;;;;;5074182;28;20496;-79
2023/07/13 08:49:38;;;;;;;3.75;2.70;;;22.40;58.10;;;;;;5038680;28;20108;-79
2023/07/13 08:52:30;;;;;;;4.20;2.28;;;22.40;58.00;;;;;;5040250;28;20032;-79
2023/07/13 08:54:58;;;;;;;3.88;2.33;;;22.50;58.10;;;;;;5051760;28;20048;-79
2023/07/13 08:57:33;;;;;;;3.67;2.40;;;22.60;58.00;;;;;;5056525;28;20025;-79
2023/07/13 08:59:58;;;;;;;;;;;22.60;57.90;;;;;;5040887;28;20035;-79
2023/07/13 09:02:45;;;;;;;3.35;2.03;;;22.70;57.60;;;;;;5056898;28;20011;-79
2023/07/13 09:05:16;;;;;;;3.03;2.03;;;22.80;57.60;;;;;;5056371;28;20120;-79
2023/07/13 09:08:09;;;;;;;3.72;2.28;;;22.90;57.60;;;;;;5074802;28;20051;-79
2023/07/13 09:10:46;;;;;;;3.13;2.00;;;22.90;57.60;;;;;;5055993;28;20041;-79
2023/07/13 09:13:45;;;;;;;3.35;2.10;;;23.00;57.60;;;;;;5056796;28;20047;-79
2023/07/13 09:16:12;;;;;;;2.75;2.22;;;23.00;57.60;;;;;;5073588;28;20028;-79
2023/07/13 09:18:43;;;;;;;4.03;2.40;;;23.10;57.50;;;;;;5072864;28;20388;-79
2023/07/13 09:21:20;;;;;;;5.20;2.55;;;23.20;57.60;;;;;;5056197;28;20491;-79
2023/07/13 09:23:47;;;;;;;3.85;2.22;;;23.20;57.50;;;;;;5074304;28;20455;-79
2023/07/13 09:26:20;;;;;;;3.22;2.13;;;23.30;57.50;;;;;;5039294;28;20029;-79
2023/07/13 09:28:54;;;;;;;4.75;2.50;;;23.40;57.60;;;;;;5055400;28;20040;-79
2023/07/13 09:31:33;;;;;;;;;;;23.50;57.50;;;;;;5056417;28;20388;-79
2023/07/13 09:33:59;;;;;;;3.10;1.90;;;23.50;57.10;;;;;;5073834;28;20008;-79
2023/07/13 09:36:29;;;;;;;3.60;2.03;;;23.60;57.00;;;;;;5056014;28;20143;-79
2023/07/13 09:39:10;;;;;;;4.30;2.47;;;23.70;57.00;;;;;;5073252;28;20033;-79
2023/07/13 09:41:55;;;;;;;3.00;2.10;;;23.80;57.00;;;;;;5055264;28;20070;-79
2023/07/13 09:44:43;;;;;;;3.08;2.13;;;23.80;56.90;;;;;;5072134;28;20469;-78
2023/07/13 09:47:24;;;;;;;2.35;1.95;;;23.80;56.80;;;;;;5055797;28;20029;-79
2023/07/13 09:50:01;;;;;;;3.38;1.92;;;23.90;56.70;;;;;;5055422;28;20044;-79
2023/07/13 09:52:38;;;;;;;3.13;2.00;;;23.90;56.70;;;;;;5073476;28;20048;-77
2023/07/13 09:55:04;;;;;;;3.65;1.98;;;24.00;56.60;;;;;;5055840;28;20028;-80
2023/07/13 09:57:30;;;;;;;2.80;1.75;;;24.00;56.60;;;;;;5022701;28;20119;-79
2023/07/13 09:59:58;;;;;;;3.72;2.22;;;24.00;56.60;;;;;;5055647;28;20037;-79
2023/07/13 10:02:33;;;;;;;3.05;2.10;;;24.00;56.60;;;;;;5022787;28;20036;-80
2023/07/13 10:05:00;;;;;;;5.03;2.15;;;24.00;56.60;;;;;;5039053;28;20567;-79
2023/07/13 10:07:27;;;;;;;2.55;2.00;;;24.10;56.70;;;;;;5055279;28;20029;-79
2023/07/13 10:10:00;;;;;;;2.42;1.90;;;24.10;56.70;;;;;;5055343;28;20029;-79
2023/07/13 10:12:27;;;;;;;3.03;1.88;;;24.10;56.80;;;;;;5073609;28;20032;-79
2023/07/13 10:14:56;;;;;;;3.15;2.00;;;24.10;56.70;;;;;;5055565;28;20033;-78
2023/07/13 10:17:32;;;;;;;2.67;1.63;;;24.10;56.80;;;;;;5055020;28;20036;-77
2023/07/13 10:20:04;;;;;;;3.00;1.90;;;24.10;56.80;;;;;;5072798;28;20025;-77
2023/07/13 10:22:45;;;;;;;2.88;1.75;;;24.10;56.80;;;;;;5039479;28;20040;-77
2023/07/13 10:25:18;;;;;;;4.05;2.05;;;24.20;56.90;;;;;;5055037;28;20036;-78
2023/07/13 10:27:44;;;;;;;3.15;1.90;;;24.20;56.80;;;;;;5072828;28;20025;-79
2023/07/13 10:30:35;;;;;;;2.00;1.73;;;24.20;56.70;;;;;;5038748;28;20086;-77
2023/07/13 10:33:03;;;;;;;1.77;1.63;;;24.20;56.80;;;;;;5072998;28;20084;-77
2023/07/13 10:35:31;;;;;;;3.22;1.92;;;24.30;56.60;;;;;;5038699;28;20032;-79
2023/07/13 10:38:11;;;;;;;2.03;1.80;;;24.30;56.60;;;;;;5038723;28;20033;-78
2023/07/13 10:40:42;;;;;;;2.80;1.90;;;24.40;56.60;;;;;;5056023;28;20035;-79
2023/07/13 10:43:19;;;;;;;2.58;1.67;;;24.40;56.40;;;;;;5038299;28;20032;-77
2023/07/13 10:45:49;;;;;;;3.25;2.13;;;24.50;56.50;;;;;;5073180;28;20060;-82
2023/07/13 10:48:17;;;;;;;1.83;1.58;;;24.60;56.30;;;;;;5055750;28;20072;-78
2023/07/13 10:50:46;;;;;;;2.60;1.60;;;24.60;56.20;;;;;;5071104;28;20045;-78
2023/07/13 10:53:29;;;;;;;2.85;1.70;;;24.60;56.20;;;;;;5073094;28;20055;-80
2023/07/13 10:56:00;;;;;;;2.47;1.65;;;24.60;56.20;;;;;;5054852;28;20035;-79
2023/07/13 10:58:32;;;;;;;4.00;2.00;;;24.70;56.20;;;;;;5054854;28;20024;-78
2023/07/13 11:01:15;;;;;;;3.25;1.90;;;24.70;56.20;;;;;;5072427;28;20461;-77
2023/07/13 11:03:43;;;;;;;3.30;1.67;;;24.70;56.30;;;;;;5072950;28;20035;-77
2023/07/13 11:06:30;;;;;;;1.85;1.50;;;24.70;56.30;;;;;;5073260;28;20035;-77
2023/07/13 11:09:28;;;;;;;2.47;1.65;;;24.70;56.40;;;;;;5072349;28;20036;-77
2023/07/13 11:11:58;;;;;;;2.35;1.60;;;24.70;56.50;;;;;;5055240;28;20051;-77
2023/07/13 11:15:06;;;;;;;2.38;1.70;;;24.70;56.50;;;;;;5058641;28;20493;-77
2023/07/13 11:17:32;;;;;;;2.50;1.42;;;24.70;56.70;;;;;;5058227;28;20029;-77
2023/07/13 11:20:13;;;;;;;4.28;1.73;;;24.70;56.60;;;;;;5058016;28;20032;-77
2023/07/13 11:22:52;;;;;;;3.13;1.77;;;24.70;56.80;;;;;;5058522;28;20050;-77
2023/07/13 11:25:26;;;;;;;1.98;1.40;;;24.70;56.90;;;;;;5076302;28;20351;-77
2023/07/13 11:28:09;;;;;;;2.80;1.58;;;24.70;56.90;;;;;;5058180;28;20059;-77
2023/07/13 11:30:56;;;;;;;2.55;1.77;;;24.70;57.10;;;;;;5058074;28;20048;-77
2023/07/13 11:33:27;;;;;;;2.38;1.52;;;24.70;57.10;;;;;;5075560;28;20098;-77
2023/07/13 11:36:03;;;;;;;3.72;1.80;;;24.70;57.10;;;;;;5057987;28;20027;-77
2023/07/13 11:38:32;;;;;;;2.60;1.70;;;24.60;57.20;;;;;;5041244;28;20040;-77
2023/07/13 11:41:03;;;;;;;2.38;1.48;;;24.70;57.20;;;;;;5074690;28;20035;-78
2023/07/13 11:43:29;;;;;;;2.75;1.50;;;24.70;57.30;;;;;;5057701;28;20027;-78
2023/07/13 11:45:55;;;;;;;2.63;1.50;;;24.60;57.20;;;;;;5074126;28;20025;-77
2023/07/13 11:48:29;;;;;;;3.25;1.67;;;24.60;57.30;;;;;;5058262;28;20064;-77
2023/07/13 11:51:05;;;;;;;2.67;1.40;;;24.60;57.30;;;;;;5054413;28;20041;-77
2023/07/13 11:53:39;;;;;;;1.90;1.38;;;24.60;57.30;;;;;;5037613;28;20025;-78
2023/07/13 11:56:06;;;;;;;2.05;1.30;;;24.70;57.40;;;;;;5054452;28;20029;-77
2023/07/13 11:58:33;;;;;;;2.55;1.30;;;24.70;57.40;;;;;;5021236;28;20128;-77
2023/07/13 12:01:04;;;;;;;2.15;1.63;;;24.60;57.30;;;;;;5037523;28;20083;-78
2023/07/13 12:03:31;;;;;;;2.15;1.48;;;24.70;57.40;;;;;;5053928;28;20151;-78
2023/07/13 12:06:08;;;;;;;2.78;1.40;;;24.60;57.40;;;;;;5055753;28;20098;-77
2023/07/13 12:08:40;;;;;;;2.22;1.40;;;24.60;57.40;;;;;;5070744;28;20037;-77
2023/07/13 12:11:15;;;;;;;1.83;1.40;;;24.70;57.40;;;;;;5037544;28;20025;-77
2023/07/13 12:13:41;;;;;;;2.50;1.60;;;24.70;57.40;;;;;;5053658;28;20101;-77
2023/07/13 12:16:46;;;;;;;1.88;1.45;;;24.70;57.30;;;;;;5055132;28;20057;-77
2023/07/13 12:19:21;;;;;;;2.90;1.48;;;24.60;57.40;;;;;;4974651;28;20550;-77
2023/07/13 12:21:48;;;;;;;1.83;1.30;;;24.70;57.40;;;;;;4973723;28;20027;-78
2023/07/13 12:24:16;;;;;;;1.88;1.40;;;24.70;57.30;;;;;;5008244;28;20040;-78
2023/07/13 12:26:42;;;;;;;2.50;1.33;;;24.70;57.40;;;;;;5053255;28;20120;-77
2023/07/13 12:29:14;;;;;;;1.88;1.33;;;24.70;57.40;;;;;;5070386;28;20120;-77
2023/07/13 12:31:45;;;;;;;1.50;1.30;;;24.70;57.40;;;;;;5053738;28;20051;-77
2023/07/13 12:34:12;;;;;;;3.85;1.52;;;24.70;57.50;;;;;;5053457;28;20028;-77
2023/07/13 12:36:46;;;;;;;2.10;1.45;;;24.70;57.50;;;;;;5053137;28;20120;-77
2023/07/13 12:39:36;;;;;;;1.65;1.55;;;24.70;57.40;;;;;;5055570;28;20033;-77
2023/07/13 12:42:27;;;;;;;1.80;1.30;;;24.70;57.50;;;;;;5053632;28;20029;-77
2023/07/13 12:44:57;;;;;;;1.55;1.30;;;24.70;57.50;;;;;;5053343;28;20071;-77
2023/07/13 12:47:23;;;;;;;1.60;1.23;;;24.70;57.50;;;;;;5053140;28;20182;-77
2023/07/13 12:49:56;;;;;;;1.70;1.20;;;24.60;57.40;;;;;;5036117;28;20566;-77
2023/07/13 12:52:35;;;;;;;1.80;1.20;;;24.60;57.50;;;;;;5053481;28;20033;-77
2023/07/13 12:55:18;;;;;;;1.77;1.27;;;24.60;57.50;;;;;;5053335;28;20385;-77
2023/07/13 12:57:58;;;;;;;1.92;1.40;;;24.60;57.50;;;;;;5052720;28;20025;-77
2023/07/13 13:00:32;;;;;;;1.80;1.17;;;24.60;57.50;;;;;;5054032;28;20100;-77